Time;durP1;ratioP1;P1;durP2;ratioP2;P2;SDS_P1;SDS_P2;PMS_P1;PMS_P2;Temp;Humidity;BMP_temperature;BMP_pressure;BME280_temperature;BME280_humidity;BME280_pressure;Samples;Min_cycle;Max_cycle;Signal;HPM_P1;HPM_P2
2022/03/24 09:01:35;;;;;;;39.13;22.67;;;17.50;46.00;;;;;;5082025;27;20628;-56
2022/03/24 09:04:03;;;;;;;38.83;24.38;;;17.80;45.90;;;;;;5060970;28;20255;-57
2022/03/24 09:06:35;;;;;;;35.65;22.70;;;18.10;45.20;;;;;;5080385;28;20126;-57
2022/03/24 09:09:02;;;;;;;42.50;22.67;;;18.30;44.60;;;;;;5078366;28;20563;-57
2022/03/24 09:11:30;;;;;;;41.88;24.27;;;18.50;44.60;;;;;;5078489;28;20387;-56
2022/03/24 09:13:56;;;;;;;37.90;23.92;;;18.70;43.30;;;;;;5080136;27;20164;-57
2022/03/24 09:16:24;;;;;;;39.13;23.52;;;18.70;42.30;;;;;;5080354;27;20142;-57
2022/03/24 09:18:51;;;;;;;35.75;22.58;;;18.60;41.40;;;;;;5079249;27;20834;-57
2022/03/24 09:21:18;;;;;;;42.30;23.77;;;18.70;41.50;;;;;;5080383;28;20481;-57
2022/03/24 09:23:46;;;;;;;37.13;24.70;;;18.80;41.20;;;;;;5079405;28;20287;-57
2022/03/24 09:26:14;;;;;;;34.30;23.33;;;18.80;41.40;;;;;;5080055;27;20065;-56
2022/03/24 09:29:01;;;;;;;36.50;23.65;;;18.80;41.00;;;;;;5079183;27;20036;-57
2022/03/24 09:31:28;;;;;;;46.58;25.25;;;18.80;41.60;;;;;;5078374;27;20833;-56
2022/03/24 09:33:56;;;;;;;39.38;23.88;;;18.90;41.60;;;;;;5081435;27;20559;-57
2022/03/24 09:36:23;;;;;;;30.80;22.70;;;19.10;40.70;;;;;;5079048;27;20637;-58
2022/03/24 09:38:50;;;;;;;35.40;23.25;;;19.30;40.70;;;;;;5073864;28;20822;-55
2022/03/24 09:41:19;;;;;;;33.25;22.98;;;19.50;41.30;;;;;;5077534;27;21026;-56
2022/03/24 09:43:46;;;;;;;36.83;22.88;;;19.70;41.60;;;;;;5077444;27;20035;-56
2022/03/24 09:46:15;;;;;;;32.08;22.60;;;20.00;40.90;;;;;;5077002;27;20152;-56
2022/03/24 09:48:43;;;;;;;30.15;21.73;;;20.30;39.50;;;;;;5077027;28;20047;-57
2022/03/24 09:51:11;;;;;;;37.38;24.98;;;20.50;40.10;;;;;;5076045;28;20808;-52
2022/03/24 09:53:39;;;;;;;35.15;23.65;;;20.50;37.30;;;;;;5076956;27;20043;-50
2022/03/24 09:56:07;;;;;;;31.48;21.80;;;20.20;37.50;;;;;;5079124;27;20043;-51
2022/03/24 09:58:34;;;;;;;36.47;23.05;;;20.10;39.70;;;;;;5080088;28;20685;-52
2022/03/24 10:01:01;;;;;;;32.40;22.75;;;20.30;39.50;;;;;;5078127;27;20146;-49
2022/03/24 10:03:28;;;;;;;30.35;21.85;;;20.50;39.10;;;;;;5077922;27;20593;-49
2022/03/24 10:06:04;;;;;;;29.65;20.38;;;20.70;37.70;;;;;;5057273;28;20254;-50
2022/03/24 10:08:31;;;;;;;30.02;19.83;;;21.00;38.90;;;;;;5075930;28;20169;-50
2022/03/24 10:11:02;;;;;;;33.72;22.90;;;21.40;37.60;;;;;;5078062;27;20810;-51
2022/03/24 10:13:53;;;;;;;60.55;26.08;;;21.50;37.60;;;;;;5065405;28;20289;-52
2022/03/24 10:16:32;;;;;;;33.08;21.23;;;21.70;37.90;;;;;;5071493;27;20036;-50
2022/03/24 10:19:14;;;;;;;46.92;21.88;;;21.80;35.50;;;;;;5064495;28;20731;-49
2022/03/24 10:21:45;;;;;;;34.50;22.15;;;21.70;35.20;;;;;;5063259;28;20270;-51
2022/03/24 10:24:18;;;;;;;33.40;22.98;;;21.60;38.10;;;;;;5062741;28;20040;-51
2022/03/24 10:26:50;;;;;;;34.05;22.58;;;21.60;37.40;;;;;;5062657;28;20028;-51
2022/03/24 10:29:20;;;;;;;30.98;20.40;;;21.60;37.60;;;;;;5061607;28;20074;-51
2022/03/24 10:31:52;;;;;;;31.73;20.75;;;21.80;39.90;;;;;;5062843;28;20955;-49
2022/03/24 10:34:42;;;;;;;31.48;20.10;;;22.00;40.00;;;;;;5062809;28;20567;-52
2022/03/24 10:37:12;;;;;;;36.63;21.85;;;22.10;39.60;;;;;;5059786;28;20050;-51
2022/03/24 10:39:55;;;;;;;32.85;22.73;;;22.20;39.80;;;;;;5062033;27;20519;-51
2022/03/24 10:42:26;;;;;;;32.10;21.67;;;22.30;39.70;;;;;;5063080;28;20303;-51
2022/03/24 10:45:17;;;;;;;30.50;22.38;;;22.30;37.70;;;;;;5062751;28;20109;-51
2022/03/24 10:47:46;;;;;;;27.45;21.27;;;22.10;38.10;;;;;;5062579;28;20044;-51
2022/03/24 10:50:28;;;;;;;40.10;22.02;;;22.00;38.80;;;;;;5062995;28;20197;-50
2022/03/24 10:53:06;;;;;;;32.65;21.75;;;22.00;40.70;;;;;;5060898;28;20047;-52
2022/03/24 10:55:39;;;;;;;34.22;23.25;;;22.10;40.70;;;;;;5045377;28;20040;-50
2022/03/24 10:58:09;;;;;;;30.27;21.05;;;22.30;41.30;;;;;;5061876;28;20032;-49
2022/03/24 11:00:39;;;;;;;34.75;24.02;;;22.50;40.00;;;;;;5062771;28;20907;-50
2022/03/24 11:03:07;;;;;;;27.98;21.85;;;22.70;38.80;;;;;;5061886;28;20044;-56
2022/03/24 11:05:36;;;;;;;31.75;19.25;;;22.70;37.40;;;;;;5063333;28;20058;-51
2022/03/24 11:08:08;;;;;;;29.60;21.33;;;22.80;38.00;;;;;;5055500;28;20511;-49
2022/03/24 11:10:45;;;;;;;29.02;21.25;;;22.90;36.80;;;;;;5042444;28;20146;-50
2022/03/24 11:13:42;;;;;;;26.90;20.33;;;22.80;34.00;;;;;;5056151;28;20043;-50
2022/03/24 11:16:14;;;;;;;33.17;21.67;;;22.80;35.60;;;;;;5043678;27;20048;-50
2022/03/24 11:18:41;;;;;;;30.40;20.67;;;22.80;35.00;;;;;;5040476;28;20530;-51
2022/03/24 11:21:16;;;;;;;30.58;20.50;;;22.70;34.60;;;;;;5039601;28;20036;-52
2022/03/24 11:23:45;;;;;;;28.70;21.98;;;22.50;33.00;;;;;;5038164;28;20036;-51
2022/03/24 11:26:14;;;;;;;27.48;19.73;;;22.30;33.90;;;;;;5041648;28;20032;-50
2022/03/24 11:28:41;;;;;;;27.65;19.63;;;22.30;35.10;;;;;;5041795;28;20043;-49
2022/03/24 11:31:16;;;;;;;28.42;19.08;;;22.40;33.40;;;;;;5042412;28;20147;-50
2022/03/24 11:33:49;;;;;;;23.60;16.52;;;22.40;32.70;;;;;;5041892;28;20058;-51
2022/03/24 11:36:21;;;;;;;22.02;17.45;;;22.40;33.20;;;;;;5040274;28;20471;-52
2022/03/24 11:38:50;;;;;;;22.10;16.58;;;22.50;35.70;;;;;;5040491;28;20044;-52
2022/03/24 11:41:21;;;;;;;21.80;17.13;;;22.70;34.20;;;;;;5037686;28;20047;-51
2022/03/24 11:43:54;;;;;;;20.30;17.15;;;22.80;33.80;;;;;;5046716;27;20549;-52
2022/03/24 11:46:45;;;;;;;28.73;17.70;;;22.90;34.10;;;;;;5046514;28;20036;-51
2022/03/24 11:49:24;;;;;;;29.00;16.95;;;23.10;33.00;;;;;;5034083;28;20711;-48
2022/03/24 11:52:11;;;;;;;27.02;16.42;;;23.10;33.40;;;;;;5048706;28;20109;-51
2022/03/24 11:54:52;;;;;;;23.70;16.65;;;23.00;33.20;;;;;;5032346;28;20931;-48
2022/03/24 11:57:22;;;;;;;22.80;17.30;;;23.20;32.30;;;;;;5041727;28;20051;-48
2022/03/24 12:00:14;;;;;;;28.55;18.33;;;23.20;31.50;;;;;;5040366;28;20622;-51
2022/03/24 12:02:43;;;;;;;24.15;16.73;;;23.30;32.80;;;;;;5041501;28;20048;-52
2022/03/24 12:05:14;;;;;;;24.05;16.83;;;23.40;31.00;;;;;;5038390;28;20200;-48
2022/03/24 12:07:41;;;;;;;27.52;17.48;;;23.30;32.60;;;;;;5041190;28;20035;-52
2022/03/24 12:10:10;;;;;;;23.50;18.90;;;23.40;32.00;;;;;;5039742;28;20166;-58
2022/03/24 12:12:38;;;;;;;25.73;17.15;;;23.50;31.80;;;;;;5057930;28;20566;-58
2022/03/24 12:15:17;;;;;;;23.65;16.63;;;23.50;32.30;;;;;;5067568;27;20031;-58
2022/03/24 12:18:05;;;;;;;30.10;17.15;;;23.40;32.40;;;;;;5038988;28;20039;-59
2022/03/24 12:20:46;;;;;;;21.58;17.05;;;23.40;32.10;;;;;;5041022;28;20693;-58
2022/03/24 12:23:15;;;;;;;23.55;17.55;;;23.30;31.20;;;;;;5040664;28;20036;-59
2022/03/24 12:25:42;;;;;;;26.90;17.70;;;23.40;32.00;;;;;;5037232;28;20044;-58
2022/03/24 12:28:27;;;;;;;23.90;17.88;;;23.40;30.80;;;;;;5038808;28;20075;-58
2022/03/24 12:31:04;;;;;;;33.63;20.17;;;23.40;31.80;;;;;;5041897;28;20142;-58
2022/03/24 12:33:47;;;;;;;27.55;18.90;;;23.50;32.20;;;;;;5041203;28;20044;-58
2022/03/24 12:36:38;;;;;;;25.83;18.20;;;23.40;33.90;;;;;;5039047;28;20124;-58
2022/03/24 12:39:05;;;;;;;27.27;16.67;;;23.30;34.20;;;;;;5038234;28;20059;-59
2022/03/24 12:41:32;;;;;;;24.40;18.67;;;23.20;34.50;;;;;;5052896;28;20036;-59
2022/03/24 12:44:07;;;;;;;37.42;18.98;;;23.10;33.90;;;;;;5058815;28;20031;-59
2022/03/24 12:46:43;;;;;;;28.20;20.05;;;23.00;34.60;;;;;;5060292;28;20640;-59
2022/03/24 12:49:10;;;;;;;22.08;17.17;;;22.90;34.20;;;;;;5040369;28;20884;-58
2022/03/24 12:51:50;;;;;;;25.27;18.63;;;22.90;33.50;;;;;;5057984;28;20152;-59
2022/03/24 12:54:20;;;;;;;28.88;19.33;;;23.00;33.80;;;;;;5057584;28;20800;-59
2022/03/24 12:56:47;;;;;;;24.23;17.17;;;23.10;33.50;;;;;;5059839;28;20055;-59
2022/03/24 12:59:19;;;;;;;24.42;18.73;;;23.20;34.00;;;;;;5060943;28;20140;-58
2022/03/24 13:01:50;;;;;;;21.27;17.25;;;23.20;34.10;;;;;;5059768;28;20640;-57
2022/03/24 13:04:17;;;;;;;29.45;17.55;;;23.20;33.90;;;;;;5054495;28;20039;-58
2022/03/24 13:06:47;;;;;;;19.73;16.90;;;23.10;32.90;;;;;;5058516;28;20118;-59
2022/03/24 13:09:19;;;;;;;20.65;15.57;;;23.00;32.80;;;;;;5058158;28;20032;-59
2022/03/24 13:11:57;;;;;;;20.83;17.02;;;23.10;32.60;;;;;;5057680;28;20036;-58
2022/03/24 13:14:27;;;;;;;22.63;16.45;;;23.10;33.10;;;;;;5059219;28;20264;-60
2022/03/24 13:17:10;;;;;;;26.65;18.98;;;23.10;32.00;;;;;;5058829;28;20051;-58
2022/03/24 13:19:39;;;;;;;23.83;17.65;;;23.10;31.90;;;;;;5058553;28;20054;-59
2022/03/24 13:22:15;;;;;;;23.65;17.98;;;23.10;32.60;;;;;;5058672;28;20043;-59
2022/03/24 13:24:42;;;;;;;29.45;17.83;;;23.10;30.90;;;;;;5058340;28;20039;-59
2022/03/24 13:27:09;;;;;;;26.55;18.48;;;23.10;31.60;;;;;;5057047;28;20786;-60
2022/03/24 13:29:38;;;;;;;21.02;15.98;;;23.10;32.30;;;;;;5059181;28;20883;-59
2022/03/24 13:32:13;;;;;;;21.80;16.95;;;23.10;33.10;;;;;;5059911;28;20075;-59
2022/03/24 13:34:52;;;;;;;25.02;17.17;;;23.20;33.10;;;;;;5059073;28;20036;-58
2022/03/24 13:37:23;;;;;;;24.52;17.67;;;23.30;32.20;;;;;;5058281;28;20349;-59
2022/03/24 13:39:55;;;;;;;21.38;16.67;;;23.30;31.30;;;;;;5059666;28;20044;-59
2022/03/24 13:42:24;;;;;;;26.25;16.55;;;23.30;32.20;;;;;;5040799;28;20147;-58
2022/03/24 13:44:52;;;;;;;24.38;17.38;;;23.40;31.90;;;;;;5058249;28;20765;-57
2022/03/24 13:47:23;;;;;;;23.25;16.17;;;23.50;32.10;;;;;;5060945;28;20035;-60
2022/03/24 13:49:56;;;;;;;19.85;16.35;;;23.50;31.20;;;;;;5064130;28;20146;-59
2022/03/24 13:52:44;;;;;;;20.80;15.80;;;23.60;31.10;;;;;;5062099;28;20368;-58
2022/03/24 13:55:29;;;;;;;23.95;17.67;;;23.60;32.30;;;;;;5061185;28;20055;-56
2022/03/24 13:58:16;;;;;;;20.48;16.65;;;23.50;30.40;;;;;;5060846;28;20741;-58
2022/03/24 14:00:46;;;;;;;23.23;17.50;;;23.50;31.60;;;;;;5054093;28;20043;-59
2022/03/24 14:03:16;;;;;;;27.35;17.42;;;23.40;30.90;;;;;;5058990;27;20134;-57
2022/03/24 14:05:43;;;;;;;21.23;17.35;;;23.40;30.20;;;;;;5061872;28;20818;-57
2022/03/24 14:08:14;;;;;;;21.00;16.48;;;23.40;30.30;;;;;;5059507;28;20303;-59
2022/03/24 14:10:49;;;;;;;20.90;16.95;;;23.40;31.60;;;;;;5063315;28;20059;-59
2022/03/24 14:13:29;;;;;;;27.38;18.08;;;23.50;31.60;;;;;;5062321;28;20042;-59
2022/03/24 14:16:17;;;;;;;23.60;17.20;;;23.50;30.30;;;;;;5062093;28;20138;-58
2022/03/24 14:19:02;;;;;;;20.48;16.35;;;23.50;30.50;;;;;;5062176;28;20203;-58
2022/03/24 14:21:44;;;;;;;22.65;16.92;;;23.50;30.20;;;;;;5062260;28;20477;-58
2022/03/24 14:24:26;;;;;;;19.90;15.63;;;23.50;31.20;;;;;;5063868;28;20449;-60
2022/03/24 14:27:03;;;;;;;19.42;15.38;;;23.50;30.30;;;;;;5062876;28;20048;-59
2022/03/24 14:29:32;;;;;;;22.05;15.82;;;23.60;30.90;;;;;;5061823;28;20639;-59
2022/03/24 14:32:08;;;;;;;21.63;16.85;;;23.70;30.80;;;;;;5063075;28;20035;-58
2022/03/24 14:34:38;;;;;;;26.08;17.05;;;23.70;31.90;;;;;;5061360;28;20043;-59
2022/03/24 14:37:11;;;;;;;33.78;18.98;;;23.60;31.20;;;;;;5061157;28;20200;-59
2022/03/24 14:39:48;;;;;;;22.30;16.35;;;23.50;31.30;;;;;;5062571;28;20536;-57
2022/03/24 14:42:17;;;;;;;28.02;18.02;;;23.40;30.90;;;;;;5060402;28;20043;-59
2022/03/24 14:44:47;;;;;;;21.67;17.05;;;23.30;30.00;;;;;;5062989;28;20042;-58
2022/03/24 14:47:15;;;;;;;23.75;16.92;;;23.40;30.00;;;;;;5058706;28;20043;-59
2022/03/24 14:49:42;;;;;;;20.40;15.95;;;23.40;29.80;;;;;;5063112;28;20129;-58
2022/03/24 14:52:09;;;;;;;19.65;16.00;;;23.40;30.00;;;;;;5061728;28;20134;-59
2022/03/24 14:54:36;;;;;;;22.45;17.30;;;23.40;29.90;;;;;;5062969;28;20144;-58
2022/03/24 14:57:03;;;;;;;22.08;16.52;;;23.30;30.10;;;;;;5060610;28;20048;-59
2022/03/24 14:59:30;;;;;;;21.00;15.48;;;23.20;30.00;;;;;;5063266;28;20058;-59
2022/03/24 15:01:57;;;;;;;18.05;15.38;;;23.10;30.20;;;;;;5061670;28;20044;-58
2022/03/24 15:04:24;;;;;;;21.17;17.15;;;23.00;29.80;;;;;;5061082;28;20032;-59
2022/03/24 15:06:51;;;;;;;19.35;14.98;;;23.00;29.90;;;;;;5061223;28;20901;-59
2022/03/24 15:09:18;;;;;;;20.13;14.98;;;23.00;29.60;;;;;;5061972;28;20534;-58
2022/03/24 15:11:50;;;;;;;25.73;16.02;;;23.00;30.10;;;;;;5060423;28;20560;-57
2022/03/24 15:17:03;;;;;;;15.88;13.27;;;22.70;30.00;;;;;;5057610;28;20068;-59
2022/03/24 15:19:29;;;;;;;17.23;13.85;;;22.60;31.10;;;;;;5059571;28;20047;-59
2022/03/24 15:21:56;;;;;;;18.13;14.20;;;22.40;31.20;;;;;;5062432;28;20051;-59
2022/03/24 15:24:23;;;;;;;19.25;14.45;;;22.30;30.10;;;;;;5061861;28;20044;-59
2022/03/24 15:26:50;;;;;;;21.15;13.77;;;22.10;30.30;;;;;;5060012;28;20373;-58
2022/03/24 15:29:17;;;;;;;16.40;13.00;;;21.90;31.40;;;;;;5062405;28;20043;-59
2022/03/24 15:31:46;;;;;;;17.80;13.80;;;21.80;31.20;;;;;;5060911;28;20050;-57
2022/03/24 15:34:18;;;;;;;15.23;12.60;;;21.60;30.70;;;;;;5059840;28;20104;-59
2022/03/24 15:36:45;;;;;;;23.77;12.98;;;21.30;31.40;;;;;;5062388;28;20055;-57
2022/03/24 15:39:12;;;;;;;18.17;12.73;;;21.00;31.70;;;;;;5058390;28;20552;-58
2022/03/24 15:41:39;;;;;;;18.13;13.60;;;20.80;31.60;;;;;;5060541;28;20208;-59
2022/03/24 15:44:09;;;;;;;14.00;10.82;;;20.60;31.70;;;;;;5058450;28;20745;-58
2022/03/24 15:46:36;;;;;;;19.25;13.13;;;20.30;32.00;;;;;;5062057;28;20039;-60
2022/03/24 15:49:04;;;;;;;16.60;12.48;;;20.10;31.10;;;;;;5061003;28;20032;-58
2022/03/24 15:51:31;;;;;;;15.35;12.88;;;19.80;31.50;;;;;;5061857;28;20043;-59
2022/03/24 15:53:58;;;;;;;20.45;11.07;;;19.50;32.20;;;;;;5058320;28;20072;-58
2022/03/24 15:56:25;;;;;;;18.35;12.55;;;19.30;32.00;;;;;;5059151;28;20055;-57
2022/03/24 15:58:57;;;;;;;13.40;9.98;;;19.00;32.20;;;;;;5061456;28;20635;-59
2022/03/24 16:01:24;;;;;;;19.63;10.30;;;18.60;31.40;;;;;;5058578;28;20046;-59
2022/03/24 16:03:55;;;;;;;14.65;9.60;;;18.30;32.50;;;;;;5058318;28;20071;-56
2022/03/24 16:06:22;;;;;;;12.20;9.65;;;17.80;33.70;;;;;;5061551;28;20099;-59
2022/03/24 16:08:49;;;;;;;12.10;9.57;;;17.40;34.00;;;;;;5059593;28;20143;-58
2022/03/24 16:11:21;;;;;;;12.23;9.07;;;16.90;34.80;;;;;;5060340;28;20142;-57
2022/03/24 16:13:48;;;;;;;14.63;8.73;;;16.50;35.30;;;;;;5059793;28;20441;-58
2022/03/24 16:16:17;;;;;;;15.77;9.80;;;16.20;35.90;;;;;;5058242;28;20373;-57
2022/03/24 16:18:44;;;;;;;17.42;10.25;;;15.80;37.10;;;;;;5061510;28;20108;-57
2022/03/24 16:21:11;;;;;;;13.85;9.95;;;15.50;37.50;;;;;;5056661;28;20035;-58
2022/03/24 16:23:38;;;;;;;14.02;9.82;;;15.20;38.70;;;;;;5056128;28;20146;-58
2022/03/24 16:26:05;;;;;;;19.05;10.25;;;14.90;39.50;;;;;;5057920;28;20031;-57
2022/03/24 16:28:33;;;;;;;21.88;10.95;;;14.70;40.60;;;;;;5059388;28;20457;-57
2022/03/24 16:31:00;;;;;;;17.25;11.00;;;14.40;40.90;;;;;;5059299;28;20040;-56
2022/03/24 16:33:27;;;;;;;14.85;10.13;;;14.20;41.40;;;;;;5059619;28;20139;-57
2022/03/24 16:35:54;;;;;;;16.35;10.48;;;14.00;41.80;;;;;;5060598;28;20169;-57
2022/03/24 16:38:21;;;;;;;18.20;10.40;;;13.90;41.80;;;;;;5057984;28;20528;-54
2022/03/24 16:40:48;;;;;;;23.33;10.95;;;13.70;42.50;;;;;;5036825;28;20093;-55
2022/03/24 16:43:15;;;;;;;14.75;10.45;;;13.60;42.80;;;;;;5053199;28;20036;-56
2022/03/24 16:45:43;;;;;;;20.70;10.10;;;13.50;43.00;;;;;;5040379;28;20033;-56
2022/03/24 16:48:10;;;;;;;13.45;9.43;;;13.40;43.70;;;;;;5054550;28;20039;-56
2022/03/24 16:50:37;;;;;;;17.27;9.38;;;13.20;44.20;;;;;;5061929;28;20048;-57
2022/03/24 16:53:04;;;;;;;16.48;9.63;;;13.10;44.40;;;;;;5059460;28;20044;-54
2022/03/24 16:55:34;;;;;;;14.50;9.32;;;13.00;45.20;;;;;;5060203;28;20140;-57
2022/03/24 16:58:04;;;;;;;23.10;10.10;;;13.00;44.80;;;;;;5059341;28;20051;-57
2022/03/24 17:00:32;;;;;;;14.85;10.45;;;12.90;44.10;;;;;;5060934;28;20610;-56
2022/03/24 17:03:03;;;;;;;21.17;10.45;;;12.90;44.80;;;;;;5058719;28;20047;-56
2022/03/24 17:05:32;;;;;;;18.58;9.77;;;12.80;43.90;;;;;;5057463;28;20949;-56
2022/03/24 17:08:01;;;;;;;16.67;10.05;;;12.80;43.30;;;;;;5056661;28;20700;-56
2022/03/24 17:10:29;;;;;;;16.92;10.75;;;12.80;43.40;;;;;;5059533;28;20129;-56
2022/03/24 17:13:00;;;;;;;15.32;10.25;;;12.70;44.20;;;;;;5057769;28;20071;-58
2022/03/24 17:15:29;;;;;;;14.50;9.52;;;12.60;44.60;;;;;;5068359;28;20039;-56
2022/03/24 17:17:56;;;;;;;32.35;9.90;;;12.60;44.50;;;;;;5059723;28;20044;-56
2022/03/24 17:20:23;;;;;;;19.25;9.15;;;12.50;45.90;;;;;;5059158;28;20156;-57
2022/03/24 17:22:51;;;;;;;20.00;9.95;;;12.40;46.30;;;;;;5062207;28;20733;-54
2022/03/24 17:25:18;;;;;;;22.13;10.63;;;12.30;47.70;;;;;;5065060;28;20051;-56
2022/03/24 17:27:48;;;;;;;20.27;11.77;;;12.20;47.20;;;;;;5062234;28;20040;-57
2022/03/24 17:30:15;;;;;;;19.88;11.48;;;12.10;47.90;;;;;;5072850;28;20124;-55
2022/03/24 17:32:43;;;;;;;18.13;11.38;;;12.00;47.70;;;;;;5075887;28;20043;-56
2022/03/24 17:35:13;;;;;;;22.98;12.27;;;12.00;47.70;;;;;;5073261;28;20859;-56
2022/03/24 17:37:45;;;;;;;22.13;13.07;;;12.00;48.80;;;;;;5065909;28;20058;-55
2022/03/24 17:40:15;;;;;;;23.02;12.43;;;11.90;48.90;;;;;;5061312;28;20071;-57
2022/03/24 17:42:48;;;;;;;25.77;12.27;;;11.80;48.70;;;;;;5062789;28;20043;-58
2022/03/24 17:45:28;;;;;;;20.42;12.55;;;11.80;47.60;;;;;;5058062;28;20360;-58
2022/03/24 17:47:57;;;;;;;21.48;12.98;;;11.80;48.40;;;;;;5044673;28;20055;-57
2022/03/24 17:50:24;;;;;;;31.00;14.73;;;11.70;49.00;;;;;;5046518;28;20246;-56
2022/03/24 17:52:53;;;;;;;;;;;11.70;48.40;;;;;;5041969;28;20042;-57
2022/03/24 17:55:20;;;;;;;36.97;13.93;;;11.60;47.80;;;;;;5046048;27;19935;-58
2022/03/24 17:57:47;;;;;;;35.83;14.38;;;11.70;47.40;;;;;;5053618;28;20046;-58
2022/03/24 18:00:15;;;;;;;34.70;14.90;;;11.60;48.10;;;;;;5062390;28;20036;-57
2022/03/24 18:02:43;;;;;;;24.38;13.35;;;11.60;49.00;;;;;;5062413;28;20044;-57
2022/03/24 18:05:10;;;;;;;53.72;30.65;;;11.50;49.10;;;;;;5061082;28;20948;-57
2022/03/24 18:07:37;;;;;;;27.50;15.38;;;11.50;49.50;;;;;;5060771;28;20098;-57
2022/03/24 18:10:06;;;;;;;26.60;13.90;;;11.40;49.80;;;;;;5063674;28;20095;-57
2022/03/24 18:12:34;;;;;;;26.38;14.55;;;11.30;50.30;;;;;;5063938;28;20864;-57
2022/03/24 18:15:01;;;;;;;26.60;14.77;;;11.20;51.40;;;;;;5070205;27;20047;-57
2022/03/24 18:17:28;;;;;;;26.60;14.98;;;11.10;51.40;;;;;;5063079;27;20463;-56
2022/03/24 18:19:57;;;;;;;22.63;13.93;;;11.00;51.60;;;;;;5062694;28;20908;-56
2022/03/24 18:22:24;;;;;;;22.88;14.10;;;10.90;51.90;;;;;;5059783;28;20857;-57
2022/03/24 18:24:51;;;;;;;;;;;10.80;52.10;;;;;;5060759;28;20043;-56
2022/03/24 18:27:18;;;;;;;28.33;13.85;;;10.80;52.30;;;;;;5064173;28;20085;-59
2022/03/24 18:29:45;;;;;;;20.67;12.77;;;10.70;52.70;;;;;;5063299;28;20133;-58
2022/03/24 18:32:12;;;;;;;;;;;10.60;53.30;;;;;;5062847;28;20043;-61
2022/03/24 18:34:39;;;;;;;20.02;12.45;;;10.60;53.50;;;;;;5065681;28;19926;-63
2022/03/24 18:37:05;;;;;;;20.25;12.00;;;10.50;53.10;;;;;;5064553;28;20050;-62
2022/03/24 18:39:32;;;;;;;;;;;10.50;52.90;;;;;;5066418;28;20050;-58
2022/03/24 18:42:00;;;;;;;28.08;14.85;;;10.50;53.50;;;;;;5063596;28;19927;-59
2022/03/24 18:44:27;;;;;;;26.95;14.63;;;10.40;54.30;;;;;;5043930;28;20142;-60
2022/03/24 18:46:53;;;;;;;;;;;10.40;54.30;;;;;;5049142;28;20036;-62
2022/03/24 18:49:23;;;;;;;38.28;18.17;;;10.40;55.60;;;;;;5064167;28;19955;-63
2022/03/24 18:51:51;;;;;;;32.70;17.48;;;10.30;56.10;;;;;;5065048;28;20039;-63
2022/03/24 18:54:18;;;;;;;33.95;19.45;;;10.30;56.30;;;;;;5050142;28;20060;-61
2022/03/24 18:56:49;;;;;;;43.92;21.42;;;10.30;56.60;;;;;;5043581;28;20162;-63
2022/03/24 18:59:16;;;;;;;43.58;22.58;;;10.20;57.80;;;;;;5051469;28;20369;-62
2022/03/24 19:01:43;;;;;;;36.55;20.85;;;10.10;58.20;;;;;;5064541;28;20053;-61
2022/03/24 19:04:11;;;;;;;35.40;20.27;;;10.00;58.20;;;;;;5064038;27;20051;-61
2022/03/24 19:06:38;;;;;;;42.25;19.90;;;9.90;58.70;;;;;;5061930;28;20105;-62
2022/03/24 19:09:05;;;;;;;35.42;20.00;;;9.80;58.90;;;;;;5041451;28;20042;-63
2022/03/24 19:11:31;;;;;;;;;;;9.80;58.80;;;;;;5043019;28;20028;-60
2022/03/24 19:13:58;;;;;;;40.40;22.00;;;9.70;59.20;;;;;;5041121;28;20233;-60
2022/03/24 19:16:25;;;;;;;;;;;9.70;60.20;;;;;;5049597;27;20055;-61
2022/03/24 19:18:52;;;;;;;42.63;22.77;;;9.60;61.00;;;;;;5042414;28;20033;-61
2022/03/24 19:21:19;;;;;;;;;;;9.50;61.80;;;;;;5041748;28;20043;-60
2022/03/24 19:23:46;;;;;;;39.35;22.95;;;9.40;62.20;;;;;;5042175;28;20101;-61
2022/03/24 19:26:15;;;;;;;36.10;20.08;;;9.40;62.70;;;;;;5041441;28;20093;-61
2022/03/24 19:28:42;;;;;;;42.00;20.20;;;9.30;62.40;;;;;;5040230;28;20051;-61
2022/03/24 19:31:10;;;;;;;36.90;21.17;;;9.30;62.60;;;;;;5039390;28;20036;-60
2022/03/24 19:33:37;;;;;;;47.80;27.02;;;9.30;63.20;;;;;;5040410;28;20322;-61
2022/03/24 19:36:05;;;;;;;44.33;22.90;;;9.30;62.80;;;;;;5041512;28;20051;-63
2022/03/24 19:38:32;;;;;;;39.28;21.73;;;9.20;62.90;;;;;;5041030;28;20319;-62
2022/03/24 19:40:59;;;;;;;46.50;22.88;;;9.20;62.80;;;;;;5041204;28;20101;-62
2022/03/24 19:43:27;;;;;;;38.20;21.08;;;9.20;63.30;;;;;;5042431;28;20413;-62
2022/03/24 19:45:54;;;;;;;38.03;20.75;;;9.20;63.20;;;;;;5039063;28;20217;-61
2022/03/24 19:48:21;;;;;;;40.55;22.02;;;9.10;63.30;;;;;;5051923;28;20040;-62
2022/03/24 19:50:50;;;;;;;36.95;20.20;;;9.10;63.80;;;;;;5061447;28;20824;-61
2022/03/24 19:53:18;;;;;;;33.47;19.77;;;9.00;63.80;;;;;;5061989;28;20897;-60
2022/03/24 19:55:45;;;;;;;33.15;18.90;;;9.00;64.00;;;;;;5061463;28;20047;-63
2022/03/24 19:58:12;;;;;;;32.25;19.63;;;8.90;64.20;;;;;;5041583;28;20556;-61
2022/03/24 20:00:39;;;;;;;;;;;8.90;64.40;;;;;;5041944;28;20040;-63
2022/03/24 20:03:06;;;;;;;37.23;21.43;;;8.90;64.70;;;;;;5041656;28;20305;-62
2022/03/24 20:05:33;;;;;;;35.50;21.30;;;8.80;65.10;;;;;;5043115;28;20037;-61
2022/03/24 20:08:00;;;;;;;;;;;8.70;65.90;;;;;;5040390;28;20573;-62
2022/03/24 20:10:28;;;;;;;33.10;20.15;;;8.70;66.10;;;;;;5043579;28;19927;-61
2022/03/24 20:12:55;;;;;;;32.38;20.38;;;8.60;66.30;;;;;;5041093;28;20064;-61
2022/03/24 20:15:22;;;;;;;38.30;20.90;;;8.50;66.70;;;;;;5050013;27;20043;-62
2022/03/24 20:17:51;;;;;;;33.85;20.25;;;8.40;66.90;;;;;;5043118;28;20040;-62
2022/03/24 20:20:20;;;;;;;33.22;19.38;;;8.40;67.20;;;;;;5041752;28;20055;-62
2022/03/24 20:22:48;;;;;;;31.90;18.75;;;8.30;67.30;;;;;;5041849;28;20812;-62
2022/03/24 20:25:17;;;;;;;40.15;19.77;;;8.30;67.40;;;;;;5040238;28;20044;-62
2022/03/24 20:27:45;;;;;;;33.13;18.75;;;8.30;67.50;;;;;;5038908;28;20052;-62
2022/03/24 20:30:14;;;;;;;37.95;20.70;;;8.30;67.70;;;;;;5039305;28;20036;-62
2022/03/24 20:32:42;;;;;;;33.97;20.73;;;8.20;68.20;;;;;;5042527;28;20060;-62
2022/03/24 20:35:11;;;;;;;34.28;19.88;;;8.10;68.40;;;;;;5042688;28;20048;-60
2022/03/24 20:37:39;;;;;;;33.90;20.83;;;8.00;68.70;;;;;;5042589;28;20797;-65
2022/03/24 20:40:07;;;;;;;36.30;20.15;;;8.00;69.20;;;;;;5062826;28;20325;-61
2022/03/24 20:42:34;;;;;;;48.33;21.90;;;7.90;69.70;;;;;;5061707;28;20058;-62
2022/03/24 20:45:16;;;;;;;34.80;20.17;;;7.90;70.00;;;;;;5061506;28;20282;-62
2022/03/24 20:47:43;;;;;;;;;;;7.90;70.10;;;;;;5060295;28;20036;-63
2022/03/24 20:50:10;;;;;;;38.42;21.50;;;7.90;69.90;;;;;;5061358;28;19927;-61
2022/03/24 20:52:37;;;;;;;;;;;7.80;69.80;;;;;;5063597;28;20048;-62
2022/03/24 20:55:05;;;;;;;36.90;20.23;;;7.80;69.30;;;;;;5062356;28;19930;-62
2022/03/24 20:57:32;;;;;;;38.03;21.05;;;7.80;69.30;;;;;;5058282;28;20192;-62
2022/03/24 20:59:59;;;;;;;40.70;20.23;;;7.80;69.10;;;;;;5061990;28;20039;-61
2022/03/24 21:02:25;;;;;;;;;;;7.80;69.20;;;;;;5063111;28;20054;-60
2022/03/24 21:04:54;;;;;;;38.92;19.27;;;7.80;69.40;;;;;;5062385;28;20841;-60
2022/03/24 21:07:23;;;;;;;34.35;20.00;;;7.80;69.70;;;;;;5061823;28;20150;-59
2022/03/24 21:09:50;;;;;;;34.75;19.25;;;7.80;69.70;;;;;;5062117;28;20047;-61
2022/03/24 21:12:19;;;;;;;32.30;19.33;;;7.70;69.70;;;;;;5060283;28;20052;-59
2022/03/24 21:14:46;;;;;;;32.85;20.00;;;7.70;70.00;;;;;;5067415;28;20054;-61
2022/03/24 21:17:13;;;;;;;37.95;20.73;;;7.60;70.40;;;;;;5063732;28;20047;-60
2022/03/24 21:19:40;;;;;;;35.20;20.20;;;7.50;70.60;;;;;;5062341;28;20048;-60
2022/03/24 21:22:07;;;;;;;;;;;7.50;70.80;;;;;;5061812;28;20168;-61
2022/03/24 21:24:34;;;;;;;32.35;19.27;;;7.50;70.60;;;;;;5063331;28;19920;-62
2022/03/24 21:27:01;;;;;;;35.78;20.40;;;7.40;70.70;;;;;;5061842;28;20357;-61
2022/03/24 21:29:28;;;;;;;33.90;20.25;;;7.40;71.20;;;;;;5071476;28;20040;-62
2022/03/24 21:31:55;;;;;;;34.00;20.17;;;7.40;71.10;;;;;;5072168;28;20054;-62
2022/03/24 21:34:22;;;;;;;34.67;19.33;;;7.30;71.20;;;;;;5063422;28;20048;-61
2022/03/24 21:36:49;;;;;;;35.53;19.10;;;7.30;71.50;;;;;;5061974;28;20531;-62
2022/03/24 21:39:16;;;;;;;35.38;19.33;;;7.30;71.10;;;;;;5062397;28;20050;-61
2022/03/24 21:41:43;;;;;;;;;;;7.30;70.90;;;;;;5061710;28;20043;-63
2022/03/24 21:44:12;;;;;;;32.33;17.00;;;7.30;70.90;;;;;;5062172;28;19927;-60
2022/03/24 21:46:39;;;;;;;30.88;18.25;;;7.30;71.30;;;;;;5060796;28;20065;-60
2022/03/24 21:49:06;;;;;;;34.03;19.50;;;7.30;71.80;;;;;;5061050;28;20151;-59
2022/03/24 21:51:33;;;;;;;;;;;7.30;72.00;;;;;;5062251;28;20276;-59
2022/03/24 21:54:00;;;;;;;38.83;20.67;;;7.20;73.20;;;;;;5062290;28;20019;-60